Terminal Aerodrome Forecast
Issued by NWS Albuquerque, NM

Home | Current Version | Previous Version | Text Only | Print | Product List | Glossary On
Versions: 1 2 3 4 5 6 7 8 9 10 11 12 13
560
FTUS45 KABQ 232333
TAFABQ
TAF
KABQ 232333Z 2400/2424 26018G28KT P6SM VCSH SCT050 BKN100
      TEMPO 2400/2403 VRB20G30KT -SHRA BKN050
     FM240300 26019G28KT P6SM SCT040 BKN080
     FM241400 31022G32KT P6SM SKC=

USA.gov is the U.S. government's official web portal to all federal, state and local government web resources and services.